createdAt,value
2023-03-29T00:00:02.362Z,1009.9079820801148
2023-03-29T00:15:02.020Z,1009.6276427136484
2023-03-29T00:30:01.705Z,1009.452662545925
2023-03-29T00:45:02.407Z,1009.2758294749488
2023-03-29T01:00:02.088Z,1009.1426473652797
2023-03-29T01:15:01.762Z,1008.9341806139474
2023-03-29T01:30:01.479Z,1008.7806539919923
2023-03-29T01:45:02.148Z,1008.5834615150446
2023-03-29T02:00:01.806Z,1008.2056294344999
2023-03-29T02:15:01.493Z,1008.0593752743235
2023-03-29T02:30:02.161Z,1007.9480673637207
2023-03-29T02:45:01.925Z,1007.7398842002511
2023-03-29T03:00:01.619Z,1007.4758746740647
2023-03-29T03:15:02.310Z,1007.3930893122119
2023-03-29T03:30:01.983Z,1007.2404652161746
2023-03-29T03:45:01.686Z,1007.1823605186805
2023-03-29T04:00:01.631Z,1007.1073490547038
2023-03-29T04:15:02.240Z,1007.0614414815509
2023-03-29T04:30:01.903Z,1006.9700309300857
2023-03-29T04:45:02.707Z,1006.8063089663162
2023-03-29T05:00:02.415Z,1006.6709277934918
2023-03-29T05:15:02.049Z,1006.4965184922381
2023-03-29T05:30:01.721Z,1006.6122368412096
2023-03-29T05:45:02.335Z,1006.3534648410496
2023-03-29T06:00:01.995Z,1006.427463886776
2023-03-29T06:15:01.655Z,1006.4402980127827
2023-03-29T06:30:02.333Z,1006.5511194112216
2023-03-29T06:45:01.965Z,1006.526760600364
2023-03-29T07:00:01.522Z,1006.6484097951131
2023-03-29T07:15:02.108Z,1006.6846302959364
2023-03-29T07:30:01.754Z,1006.716771431
2023-03-29T07:45:01.514Z,1006.8907475091193
2023-03-29T08:00:02.169Z,1006.856244287331
2023-03-29T08:15:01.812Z,1006.880035976439
2023-03-29T08:30:01.470Z,1006.7550114495571
2023-03-29T08:45:02.130Z,1006.7359996512281
2023-03-29T09:00:01.871Z,1006.6575986146622
2023-03-29T09:15:01.695Z,1006.7242105609201
2023-03-29T09:30:01.349Z,1006.828701822874
2023-03-29T09:45:02.057Z,1006.6379287005086
2023-03-29T10:00:01.795Z,1006.6030149351662
2023-03-29T10:15:01.467Z,1006.6199347445175
2023-03-29T10:30:02.162Z,1006.6397583392361
2023-03-29T10:45:01.791Z,1006.545993850617
2023-03-29T11:00:01.386Z,1006.2671529798178
2023-03-29T11:15:02.016Z,1006.4453351882944
2023-03-29T11:30:01.691Z,1006.3835603713804
2023-03-29T11:45:01.322Z,1006.3193324338619
2023-03-29T12:00:02.302Z,1006.3616571394878
2023-03-29T12:15:01.979Z,1006.2281832829084
2023-03-29T12:30:01.646Z,1006.1239178338583
2023-03-29T12:45:02.288Z,1005.8386050066532
2023-03-29T13:00:01.908Z,1005.8521093367239
2023-03-29T13:15:01.566Z,1005.7428967695034
2023-03-29T13:30:02.220Z,1005.7045826980861
2023-03-29T13:45:01.864Z,1005.7106744154725
2023-03-29T14:00:01.432Z,1005.5707292614175
2023-03-29T14:15:02.096Z,1005.4304686378896
2023-03-29T14:30:01.824Z,1005.1669995745204
2023-03-29T14:45:01.442Z,1005.0681575570602
2023-03-29T15:00:02.093Z,1004.7494682911102
2023-03-29T15:15:01.839Z,1004.5892893462471
2023-03-29T15:30:01.506Z,1004.586016930767
2023-03-29T15:45:02.155Z,1004.2823114794534
2023-03-29T16:00:01.802Z,1004.1747931177243
2023-03-29T16:15:01.440Z,1003.9904330129738
2023-03-29T16:30:02.103Z,1003.913396961845
2023-03-29T16:45:01.791Z,1003.6454183152061
2023-03-29T17:00:01.394Z,1003.4176032437817
2023-03-29T17:15:02.051Z,1003.3282846874682
2023-03-29T17:30:01.697Z,1003.301288064468
2023-03-29T17:45:01.363Z,1003.3273970201732
2023-03-29T18:00:02.051Z,1003.0829251347081
2023-03-29T18:15:01.709Z,1003.1541780583722
2023-03-29T18:30:01.376Z,1003.0449213215808
2023-03-29T18:45:02.034Z,1002.9934613691552
2023-03-29T19:00:01.666Z,1002.6505814554064
2023-03-29T19:15:01.318Z,1002.4794444198737
2023-03-29T19:30:01.997Z,1002.3821864994418
2023-03-29T19:45:01.643Z,1002.293786095814
2023-03-29T20:00:01.670Z,1001.9969316128244
2023-03-29T20:15:02.406Z,1001.7734702633566
2023-03-29T20:30:02.113Z,1001.5355958832832
2023-03-29T20:45:01.764Z,1001.3878606407121
2023-03-29T21:00:02.388Z,1001.157319399344
2023-03-29T21:15:02.015Z,1000.8463318762344
2023-03-29T21:30:01.677Z,1000.6902836425819
2023-03-29T21:45:02.306Z,1000.3532430823326
2023-03-29T22:00:01.987Z,1000.1313284404234
2023-03-29T22:15:01.647Z,1000.0536588675059
2023-03-29T22:30:02.330Z,999.8353602624421
2023-03-29T22:45:02.060Z,999.6755293153208
2023-03-29T23:00:01.686Z,999.7331928563851
2023-03-29T23:15:02.331Z,999.5691733160353
2023-03-29T23:30:02.027Z,999.2224282602715
2023-03-29T23:45:01.681Z,999.0010453300307
